createdAt,value
2022-08-27T00:00:08.564Z,26.05
2022-08-27T00:01:08.779Z,26.05
2022-08-27T00:02:08.766Z,26.04
2022-08-27T00:03:08.776Z,26.04
2022-08-27T00:04:08.866Z,26.04
2022-08-27T00:05:08.887Z,26.04
2022-08-27T00:06:08.938Z,26.04
2022-08-27T00:07:09.019Z,26.04
2022-08-27T00:08:09.314Z,26.04
2022-08-27T00:09:09.164Z,26.03
2022-08-27T00:10:09.237Z,26.03
2022-08-27T00:11:09.283Z,26.02
2022-08-27T00:12:09.380Z,26.02
2022-08-27T00:13:09.437Z,26.02
2022-08-27T00:14:09.477Z,26.02
2022-08-27T00:15:09.579Z,26.02
2022-08-27T00:16:09.779Z,26.01
2022-08-27T00:17:09.691Z,26.01
2022-08-27T00:18:09.837Z,26.00
2022-08-27T00:19:09.779Z,26.00
2022-08-27T00:20:09.855Z,26.00
2022-08-27T00:21:09.938Z,25.99
2022-08-27T00:22:09.996Z,25.99
2022-08-27T00:23:10.049Z,25.99
2022-08-27T00:24:10.090Z,25.99
2022-08-27T00:25:10.175Z,25.99
2022-08-27T00:26:10.207Z,25.99
2022-08-27T00:27:10.296Z,25.99
2022-08-27T00:28:10.483Z,25.99
2022-08-27T00:29:10.436Z,25.98
2022-08-27T00:30:10.496Z,25.98
2022-08-27T00:31:12.372Z,25.98
2022-08-27T00:32:10.657Z,25.98
2022-08-27T00:33:10.635Z,25.98
2022-08-27T00:34:13.266Z,25.98
2022-08-27T00:35:10.781Z,25.98
2022-08-27T00:36:10.821Z,25.97
2022-08-27T00:37:10.885Z,25.97
2022-08-27T00:38:11.174Z,25.97
2022-08-27T00:39:11.057Z,25.98
2022-08-27T00:40:11.147Z,25.98
2022-08-27T00:41:11.136Z,25.98
2022-08-27T00:42:11.217Z,25.97
2022-08-27T00:43:11.272Z,25.97
2022-08-27T00:44:11.316Z,25.97
2022-08-27T00:45:11.431Z,25.97
2022-08-27T00:46:11.521Z,25.97
2022-08-27T00:47:11.525Z,25.96
2022-08-27T00:48:11.816Z,25.96
2022-08-27T00:49:11.645Z,25.96
2022-08-27T00:50:11.710Z,25.96
2022-08-27T00:51:11.777Z,25.95
2022-08-27T00:52:11.848Z,25.95
2022-08-27T00:53:11.903Z,25.95
2022-08-27T00:54:16.104Z,25.96
2022-08-27T00:55:12.054Z,25.96
2022-08-27T00:56:12.124Z,25.96
2022-08-27T00:57:12.163Z,25.96
2022-08-27T00:58:12.458Z,25.96
2022-08-27T00:59:12.287Z,25.96
2022-08-27T01:00:12.359Z,25.96
2022-08-27T01:01:12.438Z,25.95
2022-08-27T01:02:12.537Z,25.95
2022-08-27T01:03:12.527Z,25.95
2022-08-27T01:04:12.623Z,25.95
2022-08-27T01:05:12.670Z,25.94
2022-08-27T01:06:12.719Z,25.94
2022-08-27T01:07:12.782Z,25.94
2022-08-27T01:08:12.830Z,25.94
2022-08-27T01:09:12.902Z,25.93
2022-08-27T01:10:12.978Z,25.93
2022-08-27T01:11:13.024Z,25.93
2022-08-27T01:12:13.117Z,25.93
2022-08-27T01:13:13.172Z,25.93
2022-08-27T01:14:13.212Z,25.93
2022-08-27T01:15:16.915Z,25.93
2022-08-27T01:16:13.402Z,25.92
2022-08-27T01:17:13.389Z,25.92
2022-08-27T01:18:13.453Z,25.92
2022-08-27T01:19:13.512Z,25.92
2022-08-27T01:20:13.592Z,25.91
2022-08-27T01:21:13.632Z,25.91
2022-08-27T01:22:21.627Z,25.91
2022-08-27T01:23:13.792Z,25.91
2022-08-27T01:24:13.860Z,25.91
2022-08-27T01:25:13.873Z,25.91
2022-08-27T01:26:13.951Z,25.91
2022-08-27T01:27:14.040Z,25.91
2022-08-27T01:28:14.066Z,25.91
2022-08-27T01:29:14.111Z,25.91
2022-08-27T01:30:14.182Z,25.91
2022-08-27T01:31:14.301Z,25.91
2022-08-27T01:32:14.318Z,25.91
2022-08-27T01:33:14.402Z,25.90
2022-08-27T01:34:14.439Z,25.90
2022-08-27T01:35:14.528Z,25.90
2022-08-27T01:36:14.612Z,25.90
2022-08-27T01:37:14.675Z,25.90
2022-08-27T01:38:30.099Z,25.90
2022-08-27T01:39:14.808Z,25.90
2022-08-27T01:40:16.835Z,25.89
2022-08-27T01:41:14.973Z,25.89
2022-08-27T01:42:15.047Z,25.89
2022-08-27T01:43:15.136Z,25.89
2022-08-27T01:44:16.302Z,25.89
2022-08-27T01:45:15.232Z,25.88
2022-08-27T01:46:15.315Z,25.88
2022-08-27T01:47:15.352Z,25.88
2022-08-27T01:48:15.440Z,25.88
2022-08-27T01:49:15.474Z,25.88
2022-08-27T01:50:15.553Z,25.88
2022-08-27T01:51:15.598Z,25.87
2022-08-27T01:52:15.667Z,25.87
2022-08-27T01:53:15.767Z,25.87
2022-08-27T01:54:15.794Z,25.87
2022-08-27T01:55:15.874Z,25.87
2022-08-27T01:56:15.936Z,25.87
2022-08-27T01:57:15.990Z,25.87
2022-08-27T01:58:16.102Z,25.87
2022-08-27T01:59:16.127Z,25.87
2022-08-27T02:00:16.189Z,25.86
2022-08-27T02:01:16.396Z,25.86
2022-08-27T02:02:16.396Z,25.86
2022-08-27T02:03:16.405Z,25.86
2022-08-27T02:04:16.469Z,25.86
2022-08-27T02:05:16.534Z,25.86
2022-08-27T02:06:16.597Z,25.86
2022-08-27T02:07:16.668Z,25.86
2022-08-27T02:08:16.749Z,25.85
2022-08-27T02:09:16.812Z,25.85
2022-08-27T02:10:16.869Z,25.85
2022-08-27T02:11:16.928Z,25.84
2022-08-27T02:12:17.011Z,25.84
2022-08-27T02:13:17.071Z,25.84
2022-08-27T02:14:17.165Z,25.84
2022-08-27T02:15:17.162Z,25.84
2022-08-27T02:16:17.297Z,25.83
2022-08-27T02:17:17.289Z,25.83
2022-08-27T02:18:17.385Z,25.82
2022-08-27T02:19:17.453Z,25.82
2022-08-27T02:20:17.462Z,25.82
2022-08-27T02:21:17.522Z,25.82
2022-08-27T02:22:17.563Z,25.81
2022-08-27T02:23:17.639Z,25.81
2022-08-27T02:24:17.711Z,25.81
2022-08-27T02:25:17.805Z,25.81
2022-08-27T02:26:17.824Z,25.81
2022-08-27T02:27:17.899Z,25.81
2022-08-27T02:28:17.963Z,25.80
2022-08-27T02:29:17.986Z,25.80
2022-08-27T02:30:18.057Z,25.80
2022-08-27T02:31:18.150Z,25.80
2022-08-27T02:32:31.117Z,25.80
2022-08-27T02:33:18.281Z,25.79
2022-08-27T02:34:18.290Z,25.79
2022-08-27T02:35:18.360Z,25.78
2022-08-27T02:36:18.442Z,25.78
2022-08-27T02:37:18.523Z,25.78
2022-08-27T02:38:18.553Z,25.78
2022-08-27T02:39:18.594Z,25.78
2022-08-27T02:40:18.715Z,25.78
2022-08-27T02:41:18.728Z,25.78
2022-08-27T02:42:18.788Z,25.78
2022-08-27T02:43:25.126Z,25.78
2022-08-27T02:44:18.957Z,25.77
2022-08-27T02:45:18.981Z,25.77
2022-08-27T02:46:19.071Z,25.77
2022-08-27T02:47:19.104Z,25.77
2022-08-27T02:48:19.194Z,25.77
2022-08-27T02:49:19.214Z,25.77
2022-08-27T02:50:19.283Z,25.77
2022-08-27T02:51:19.329Z,25.77
2022-08-27T02:52:24.976Z,25.77
2022-08-27T02:53:19.456Z,25.76
2022-08-27T02:54:19.497Z,25.76
2022-08-27T02:55:19.549Z,25.75
2022-08-27T02:56:21.902Z,25.75
2022-08-27T02:57:19.688Z,25.75
2022-08-27T02:58:19.777Z,25.75
2022-08-27T02:59:19.798Z,25.75
2022-08-27T03:00:19.865Z,25.75
2022-08-27T03:01:19.952Z,25.75
2022-08-27T03:02:20.151Z,25.75
2022-08-27T03:03:20.060Z,25.75
2022-08-27T03:04:20.117Z,25.74
2022-08-27T03:05:20.150Z,25.74
2022-08-27T03:06:20.250Z,25.74
2022-08-27T03:07:20.295Z,25.74
2022-08-27T03:08:20.376Z,25.74
2022-08-27T03:09:20.418Z,25.73
2022-08-27T03:10:20.500Z,25.73
2022-08-27T03:11:20.565Z,25.73
2022-08-27T03:12:22.780Z,25.73
2022-08-27T03:13:20.747Z,25.72
2022-08-27T03:14:20.760Z,25.72
2022-08-27T03:15:20.813Z,25.71
2022-08-27T03:16:20.913Z,25.71
2022-08-27T03:17:20.922Z,25.71
2022-08-27T03:18:21.027Z,25.71
2022-08-27T03:19:23.730Z,25.71
2022-08-27T03:20:21.136Z,25.71
2022-08-27T03:21:21.266Z,25.71
2022-08-27T03:22:21.278Z,25.71
2022-08-27T03:23:21.335Z,25.71
2022-08-27T03:24:21.393Z,25.70
2022-08-27T03:25:21.446Z,25.70
2022-08-27T03:26:21.507Z,25.70
2022-08-27T03:27:21.568Z,25.69
2022-08-27T03:28:23.297Z,25.69
2022-08-27T03:29:21.698Z,25.69
2022-08-27T03:30:21.760Z,25.69
2022-08-27T03:31:21.874Z,25.69
2022-08-27T03:32:21.879Z,25.69
2022-08-27T03:33:21.956Z,25.68
2022-08-27T03:34:22.064Z,25.68
2022-08-27T03:35:22.102Z,25.68
2022-08-27T03:36:22.122Z,25.68
2022-08-27T03:37:22.181Z,25.68
2022-08-27T03:38:22.256Z,25.68
2022-08-27T03:39:22.305Z,25.68
2022-08-27T03:40:22.387Z,25.67
2022-08-27T03:41:22.428Z,25.67
2022-08-27T03:42:22.469Z,25.67
2022-08-27T03:43:22.523Z,25.67
2022-08-27T03:44:22.595Z,25.67
2022-08-27T03:45:22.695Z,25.66
2022-08-27T03:46:22.769Z,25.66
2022-08-27T03:47:22.788Z,25.66
2022-08-27T03:48:22.903Z,25.65
2022-08-27T03:49:22.924Z,25.65
2022-08-27T03:50:23.016Z,25.65
2022-08-27T03:51:23.019Z,25.65
2022-08-27T03:52:23.096Z,25.64
2022-08-27T03:53:23.147Z,25.64
2022-08-27T03:54:23.189Z,25.64
2022-08-27T03:55:23.248Z,25.64
2022-08-27T03:56:23.310Z,25.63
2022-08-27T03:57:23.395Z,25.63
2022-08-27T03:58:23.462Z,25.63
2022-08-27T03:59:23.533Z,25.63
2022-08-27T04:00:23.596Z,25.63
2022-08-27T04:01:23.730Z,25.63
2022-08-27T04:02:23.760Z,25.63
2022-08-27T04:03:23.753Z,25.63
2022-08-27T04:04:23.817Z,25.62
2022-08-27T04:05:23.903Z,25.62
2022-08-27T04:06:23.942Z,25.62
2022-08-27T04:07:24.026Z,25.61
2022-08-27T04:08:24.145Z,25.61
2022-08-27T04:09:24.143Z,25.61
2022-08-27T04:10:24.207Z,25.61
2022-08-27T04:11:24.286Z,25.61
2022-08-27T04:12:24.373Z,25.61
2022-08-27T04:13:24.407Z,25.61
2022-08-27T04:14:26.888Z,25.61
2022-08-27T04:15:24.520Z,25.60
2022-08-27T04:16:24.681Z,25.60
2022-08-27T04:17:24.691Z,25.60
2022-08-27T04:18:24.722Z,25.60
2022-08-27T04:19:27.594Z,25.60
2022-08-27T04:20:34.978Z,25.60
2022-08-27T04:21:24.945Z,25.59
2022-08-27T04:22:24.978Z,25.59
2022-08-27T04:23:25.059Z,25.59
2022-08-27T04:24:25.110Z,25.59
2022-08-27T04:25:25.188Z,25.59
2022-08-27T04:26:25.261Z,25.58
2022-08-27T04:27:25.306Z,25.58
2022-08-27T04:28:25.430Z,25.58
2022-08-27T04:29:25.455Z,25.58
2022-08-27T04:30:25.538Z,25.58
2022-08-27T04:31:26.550Z,25.58
2022-08-27T04:32:25.796Z,25.58
2022-08-27T04:33:25.815Z,25.58
2022-08-27T04:34:25.881Z,25.58
2022-08-27T04:35:25.969Z,25.58
2022-08-27T04:36:25.965Z,25.58
2022-08-27T04:37:26.157Z,25.57
2022-08-27T04:38:26.141Z,25.57
2022-08-27T04:39:26.384Z,25.57
2022-08-27T04:40:26.246Z,25.56
2022-08-27T04:41:26.367Z,25.56
2022-08-27T04:42:26.479Z,25.56
2022-08-27T04:43:26.530Z,25.56
2022-08-27T04:44:26.511Z,25.56
2022-08-27T04:45:26.663Z,25.56
2022-08-27T04:46:26.682Z,25.56
2022-08-27T04:47:26.755Z,25.56
2022-08-27T04:48:27.560Z,25.57
2022-08-27T04:49:26.849Z,25.57
2022-08-27T04:50:26.906Z,25.57
2022-08-27T04:51:27.165Z,25.56
2022-08-27T04:52:26.981Z,25.56
2022-08-27T04:53:27.149Z,25.56
2022-08-27T04:54:33.001Z,25.56
2022-08-27T04:55:27.202Z,25.55
2022-08-27T04:56:27.282Z,25.54
2022-08-27T04:57:27.364Z,25.54
2022-08-27T04:58:27.544Z,25.53
2022-08-27T04:59:27.398Z,25.53
2022-08-27T05:00:27.430Z,25.53
2022-08-27T05:01:27.714Z,25.53
2022-08-27T05:02:27.651Z,25.53
2022-08-27T05:03:27.671Z,25.53
2022-08-27T05:04:27.687Z,25.53
2022-08-27T05:05:27.884Z,25.52
2022-08-27T05:06:27.832Z,25.51
2022-08-27T05:07:27.907Z,25.51
2022-08-27T05:08:27.982Z,25.51
2022-08-27T05:09:28.038Z,25.50
2022-08-27T05:10:28.041Z,25.50
2022-08-27T05:11:28.233Z,25.50
2022-08-27T05:12:28.261Z,25.50
2022-08-27T05:13:28.353Z,25.50
2022-08-27T05:14:28.376Z,25.50
2022-08-27T05:15:29.301Z,25.50
2022-08-27T05:16:28.471Z,25.50
2022-08-27T05:17:28.605Z,25.49
2022-08-27T05:18:28.656Z,25.49
2022-08-27T05:19:28.648Z,25.48
2022-08-27T05:20:28.823Z,25.48
2022-08-27T05:21:28.788Z,25.48
2022-08-27T05:22:28.819Z,25.48
2022-08-27T05:23:28.897Z,25.49
2022-08-27T05:24:28.946Z,25.49
2022-08-27T05:25:29.048Z,25.49
2022-08-27T05:26:29.562Z,25.49
2022-08-27T05:27:29.163Z,25.49
2022-08-27T05:28:29.134Z,25.49
2022-08-27T05:29:29.209Z,25.49
2022-08-27T05:30:29.239Z,25.49
2022-08-27T05:31:29.502Z,25.49
2022-08-27T05:32:29.402Z,25.48
2022-08-27T05:33:29.505Z,25.48
2022-08-27T05:34:29.530Z,25.49
2022-08-27T05:35:29.589Z,25.49
2022-08-27T05:36:29.626Z,25.49
2022-08-27T05:37:29.766Z,25.49
2022-08-27T05:38:29.754Z,25.49
2022-08-27T05:39:29.791Z,25.49
2022-08-27T05:40:29.975Z,25.50
2022-08-27T05:41:34.291Z,25.50
2022-08-27T05:42:29.974Z,25.49
2022-08-27T05:43:30.087Z,25.49
2022-08-27T05:44:40.877Z,25.49
2022-08-27T05:45:30.511Z,25.49
2022-08-27T05:46:30.257Z,25.48
2022-08-27T05:47:30.307Z,25.48
2022-08-27T05:48:30.401Z,25.48
2022-08-27T05:49:30.423Z,25.48
2022-08-27T05:50:30.500Z,25.48
2022-08-27T05:51:30.555Z,25.48
2022-08-27T05:52:30.642Z,25.48
2022-08-27T05:53:30.666Z,25.48
2022-08-27T05:54:30.746Z,25.48
2022-08-27T05:55:30.800Z,25.49
2022-08-27T05:56:30.850Z,25.48
2022-08-27T05:57:30.892Z,25.48
2022-08-27T05:58:30.942Z,25.47
2022-08-27T05:59:30.993Z,25.47
2022-08-27T06:00:31.068Z,25.47
2022-08-27T06:01:31.104Z,25.46
2022-08-27T06:02:31.239Z,25.45
2022-08-27T06:03:31.236Z,25.45
2022-08-27T06:04:31.286Z,25.45
2022-08-27T06:05:31.439Z,25.46
2022-08-27T06:06:31.403Z,25.46
2022-08-27T06:07:31.472Z,25.46
2022-08-27T06:08:31.526Z,25.46
2022-08-27T06:09:31.587Z,25.46
2022-08-27T06:10:31.674Z,25.46
2022-08-27T06:11:31.723Z,25.47
2022-08-27T06:12:31.807Z,25.47
2022-08-27T06:13:31.867Z,25.48
2022-08-27T06:14:31.922Z,25.48
2022-08-27T06:15:32.068Z,25.48
2022-08-27T06:16:32.038Z,25.48
2022-08-27T06:17:32.130Z,25.48
2022-08-27T06:18:32.183Z,25.48
2022-08-27T06:19:32.266Z,25.48
2022-08-27T06:20:32.329Z,25.48
2022-08-27T06:21:32.402Z,25.48
2022-08-27T06:22:32.475Z,25.48
2022-08-27T06:23:32.526Z,25.47
2022-08-27T06:24:32.600Z,25.47
2022-08-27T06:25:32.637Z,25.47
2022-08-27T06:26:32.716Z,25.47
2022-08-27T06:27:32.784Z,25.47
2022-08-27T06:28:32.864Z,25.47
2022-08-27T06:29:32.972Z,25.48
2022-08-27T06:30:33.010Z,25.48
2022-08-27T06:31:33.154Z,25.48
2022-08-27T06:32:33.133Z,25.48
2022-08-27T06:33:33.213Z,25.48
2022-08-27T06:34:33.305Z,25.48
2022-08-27T06:35:34.081Z,25.48
2022-08-27T06:36:33.418Z,25.48
2022-08-27T06:37:33.477Z,25.47
2022-08-27T06:38:33.525Z,25.47
2022-08-27T06:39:33.601Z,25.47
2022-08-27T06:40:33.720Z,25.47
2022-08-27T06:41:33.714Z,25.47
2022-08-27T06:42:33.752Z,25.48
2022-08-27T06:43:33.835Z,25.48
2022-08-27T06:44:33.874Z,25.48
2022-08-27T06:45:33.938Z,25.48
2022-08-27T06:46:34.051Z,25.47
2022-08-27T06:47:34.057Z,25.47
2022-08-27T06:48:34.130Z,25.47
2022-08-27T06:49:34.208Z,25.48
2022-08-27T06:50:34.240Z,25.47
2022-08-27T06:51:34.305Z,25.47
2022-08-27T06:52:34.367Z,25.47
2022-08-27T06:53:34.446Z,25.47
2022-08-27T06:54:34.509Z,25.47
2022-08-27T06:55:37.281Z,25.47
2022-08-27T06:56:34.608Z,25.48
2022-08-27T06:57:34.680Z,25.48
2022-08-27T06:58:34.747Z,25.48
2022-08-27T06:59:34.815Z,25.48
2022-08-27T07:00:34.865Z,25.48
2022-08-27T07:01:35.010Z,25.48
2022-08-27T07:02:35.018Z,25.47
2022-08-27T07:03:35.055Z,25.47
2022-08-27T07:04:35.122Z,25.47
2022-08-27T07:05:35.178Z,25.47
2022-08-27T07:06:35.255Z,25.47
2022-08-27T07:07:40.683Z,25.47
2022-08-27T07:08:35.391Z,25.47
2022-08-27T07:09:35.466Z,25.47
2022-08-27T07:10:35.523Z,25.46
2022-08-27T07:11:35.589Z,25.46
2022-08-27T07:12:35.654Z,25.45
2022-08-27T07:13:35.717Z,25.45
2022-08-27T07:14:38.253Z,25.45
2022-08-27T07:15:35.862Z,25.45
2022-08-27T07:16:35.926Z,25.44
2022-08-27T07:17:35.992Z,25.44
2022-08-27T07:18:36.032Z,25.44
2022-08-27T07:19:36.110Z,25.44
2022-08-27T07:20:36.171Z,25.44
2022-08-27T07:21:36.220Z,25.44
2022-08-27T07:22:36.295Z,25.44
2022-08-27T07:23:36.363Z,25.43
2022-08-27T07:24:36.423Z,25.43
2022-08-27T07:25:36.473Z,25.43
2022-08-27T07:26:36.535Z,25.43
2022-08-27T07:27:36.598Z,25.44
2022-08-27T07:28:36.656Z,25.44
2022-08-27T07:29:36.729Z,25.44
2022-08-27T07:30:36.841Z,25.44
2022-08-27T07:31:36.875Z,25.44
2022-08-27T07:32:36.937Z,25.44
2022-08-27T07:33:37.000Z,25.44
2022-08-27T07:34:37.078Z,25.44
2022-08-27T07:35:37.136Z,25.44
2022-08-27T07:36:37.201Z,25.45
2022-08-27T07:37:37.345Z,25.45
2022-08-27T07:38:37.347Z,25.45
2022-08-27T07:39:37.423Z,25.44
2022-08-27T07:40:37.581Z,25.44
2022-08-27T07:41:37.553Z,25.44
2022-08-27T07:42:37.589Z,25.44
2022-08-27T07:43:37.645Z,25.44
2022-08-27T07:44:37.717Z,25.44
2022-08-27T07:45:37.906Z,25.44
2022-08-27T07:46:40.089Z,25.44
2022-08-27T07:47:37.919Z,25.44
2022-08-27T07:48:38.009Z,25.44
2022-08-27T07:49:38.080Z,25.44
2022-08-27T07:50:38.115Z,25.44
2022-08-27T07:51:38.187Z,25.44
2022-08-27T07:52:38.258Z,25.44
2022-08-27T07:53:38.330Z,25.44
2022-08-27T07:54:38.442Z,25.44
2022-08-27T07:55:38.486Z,25.44
2022-08-27T07:56:38.527Z,25.44
2022-08-27T07:57:38.603Z,25.43
2022-08-27T07:58:38.668Z,25.43
2022-08-27T07:59:38.751Z,25.43
2022-08-27T08:00:38.789Z,25.43
2022-08-27T08:01:38.883Z,25.43
2022-08-27T08:02:39.000Z,25.43
2022-08-27T08:03:39.009Z,25.43
2022-08-27T08:04:39.065Z,25.43
2022-08-27T08:05:39.128Z,25.43
2022-08-27T08:06:39.198Z,25.42
2022-08-27T08:07:39.254Z,25.43
2022-08-27T08:08:39.514Z,25.43
2022-08-27T08:09:39.389Z,25.44
2022-08-27T08:10:39.459Z,25.44
2022-08-27T08:11:39.523Z,25.43
2022-08-27T08:12:39.588Z,25.43
2022-08-27T08:13:39.688Z,25.42
2022-08-27T08:14:39.741Z,25.42
2022-08-27T08:15:39.772Z,25.42
2022-08-27T08:16:39.856Z,25.43
2022-08-27T08:17:39.938Z,25.43
2022-08-27T08:18:39.984Z,25.43
2022-08-27T08:19:40.186Z,25.42
2022-08-27T08:20:56.953Z,25.42
2022-08-27T08:21:40.176Z,25.42
2022-08-27T08:22:40.223Z,25.42
2022-08-27T08:23:40.294Z,25.42
2022-08-27T08:24:40.367Z,25.42
2022-08-27T08:25:40.427Z,25.42
2022-08-27T08:26:40.468Z,25.42
2022-08-27T08:27:40.555Z,25.42
2022-08-27T08:28:40.615Z,25.42
2022-08-27T08:29:40.690Z,25.42
2022-08-27T08:30:40.798Z,25.42
2022-08-27T08:31:40.826Z,25.42
2022-08-27T08:32:40.882Z,25.42
2022-08-27T08:33:40.990Z,25.43
2022-08-27T08:34:41.010Z,25.43
2022-08-27T08:35:41.408Z,25.43
2022-08-27T08:36:41.132Z,25.42
2022-08-27T08:37:41.201Z,25.42
2022-08-27T08:38:41.261Z,25.42
2022-08-27T08:39:41.319Z,25.42
2022-08-27T08:40:41.397Z,25.42
2022-08-27T08:41:41.453Z,25.42
2022-08-27T08:42:41.521Z,25.42
2022-08-27T08:43:41.590Z,25.41
2022-08-27T08:44:41.649Z,25.41
2022-08-27T08:45:41.780Z,25.42
2022-08-27T08:46:41.790Z,25.42
2022-08-27T08:47:41.864Z,25.42
2022-08-27T08:48:41.953Z,25.42
2022-08-27T08:49:42.019Z,25.41
2022-08-27T08:50:42.075Z,25.41
2022-08-27T08:51:42.145Z,25.41
2022-08-27T08:52:42.233Z,25.41
2022-08-27T08:53:42.262Z,25.40
2022-08-27T08:54:42.314Z,25.40
2022-08-27T08:55:42.379Z,25.40
2022-08-27T08:56:42.440Z,25.41
2022-08-27T08:57:42.512Z,25.41
2022-08-27T08:58:42.599Z,25.41
2022-08-27T08:59:42.641Z,25.41
2022-08-27T09:00:42.696Z,25.41
2022-08-27T09:01:42.840Z,25.41
2022-08-27T09:02:42.842Z,25.41
2022-08-27T09:03:42.983Z,25.41
2022-08-27T09:04:43.011Z,25.41
2022-08-27T09:05:43.055Z,25.41
2022-08-27T09:06:43.129Z,25.42
2022-08-27T09:07:43.211Z,25.42
2022-08-27T09:08:43.723Z,25.42
2022-08-27T09:09:43.334Z,25.41
2022-08-27T09:10:43.395Z,25.41
2022-08-27T09:11:43.462Z,25.40
2022-08-27T09:12:43.552Z,25.40
2022-08-27T09:13:43.618Z,25.40
2022-08-27T09:14:46.211Z,25.39
2022-08-27T09:15:43.765Z,25.39
2022-08-27T09:16:43.983Z,25.39
2022-08-27T09:17:43.911Z,25.39
2022-08-27T09:18:43.983Z,25.39
2022-08-27T09:19:44.054Z,25.39
2022-08-27T09:20:44.111Z,25.39
2022-08-27T09:21:44.169Z,25.39
2022-08-27T09:22:44.251Z,25.39
2022-08-27T09:23:44.320Z,25.39
2022-08-27T09:24:44.417Z,25.39
2022-08-27T09:25:44.483Z,25.39
2022-08-27T09:26:44.557Z,25.39
2022-08-27T09:27:44.646Z,25.39
2022-08-27T09:28:44.705Z,25.39
2022-08-27T09:29:44.768Z,25.39
2022-08-27T09:30:44.889Z,25.39
2022-08-27T09:31:44.926Z,25.39
2022-08-27T09:32:45.012Z,25.39
2022-08-27T09:33:55.879Z,25.39
2022-08-27T09:34:45.176Z,25.39
2022-08-27T09:35:45.197Z,25.39
2022-08-27T09:36:45.299Z,25.39
2022-08-27T09:37:45.363Z,25.39
2022-08-27T09:38:45.408Z,25.39
2022-08-27T09:39:45.475Z,25.39
2022-08-27T09:40:45.629Z,25.39
2022-08-27T09:41:45.621Z,25.39
2022-08-27T09:42:45.989Z,25.39
2022-08-27T09:43:45.758Z,25.39
2022-08-27T09:44:49.138Z,25.39
2022-08-27T09:45:46.106Z,25.39
2022-08-27T09:46:45.974Z,25.39
2022-08-27T09:47:46.042Z,25.39
2022-08-27T09:48:46.105Z,25.39
2022-08-27T09:49:46.172Z,25.39
2022-08-27T09:50:46.260Z,25.38
2022-08-27T09:51:46.335Z,25.38
2022-08-27T09:52:46.459Z,25.38
2022-08-27T09:53:46.469Z,25.38
2022-08-27T09:54:46.547Z,25.39
2022-08-27T09:55:46.601Z,25.39
2022-08-27T09:56:46.667Z,25.39
2022-08-27T09:57:46.760Z,25.39
2022-08-27T09:58:46.788Z,25.39
2022-08-27T09:59:46.839Z,25.39
2022-08-27T10:00:46.956Z,25.38
2022-08-27T10:01:46.967Z,25.38
2022-08-27T10:02:47.056Z,25.38
2022-08-27T10:03:47.182Z,25.37
2022-08-27T10:04:50.334Z,25.37
2022-08-27T10:05:47.249Z,25.37
2022-08-27T10:06:47.332Z,25.36
2022-08-27T10:07:47.418Z,25.36
2022-08-27T10:08:47.492Z,25.36
2022-08-27T10:09:47.564Z,25.36
2022-08-27T10:10:47.641Z,25.36
2022-08-27T10:11:47.701Z,25.36
2022-08-27T10:12:47.801Z,25.36
2022-08-27T10:13:47.835Z,25.36
2022-08-27T10:14:47.912Z,25.36
2022-08-27T10:15:49.616Z,25.35
2022-08-27T10:16:48.089Z,25.35
2022-08-27T10:17:48.144Z,25.35
2022-08-27T10:18:48.209Z,25.34
2022-08-27T10:19:48.280Z,25.34
2022-08-27T10:20:48.354Z,25.34
2022-08-27T10:21:48.421Z,25.34
2022-08-27T10:22:48.513Z,25.34
2022-08-27T10:23:48.595Z,25.34
2022-08-27T10:24:48.652Z,25.34
2022-08-27T10:25:48.748Z,25.34
2022-08-27T10:26:48.784Z,25.34
2022-08-27T10:27:48.859Z,25.34
2022-08-27T10:28:48.937Z,25.34
2022-08-27T10:29:49.008Z,25.34
2022-08-27T10:30:49.103Z,25.34
2022-08-27T10:31:49.193Z,25.33
2022-08-27T10:32:52.334Z,25.33
2022-08-27T10:33:49.301Z,25.33
2022-08-27T10:34:49.360Z,25.33
2022-08-27T10:35:54.616Z,25.33
2022-08-27T10:36:49.625Z,25.33
2022-08-27T10:37:49.627Z,25.33
2022-08-27T10:38:49.668Z,25.32
2022-08-27T10:39:49.924Z,25.32
2022-08-27T10:40:49.810Z,25.32
2022-08-27T10:41:49.903Z,25.32
2022-08-27T10:42:49.959Z,25.33
2022-08-27T10:43:50.024Z,25.33
2022-08-27T10:44:50.088Z,25.33
2022-08-27T10:45:50.163Z,25.32
2022-08-27T10:46:50.899Z,25.32
2022-08-27T10:47:50.284Z,25.32
2022-08-27T10:48:50.373Z,25.31
2022-08-27T10:49:50.457Z,25.31
2022-08-27T10:50:50.543Z,25.31
2022-08-27T10:51:50.596Z,25.31
2022-08-27T10:52:51.473Z,25.31
2022-08-27T10:53:50.735Z,25.30
2022-08-27T10:54:50.843Z,25.30
2022-08-27T10:55:50.902Z,25.30
2022-08-27T10:57:03.689Z,25.30
2022-08-27T10:57:58.886Z,25.29
2022-08-27T10:58:51.146Z,25.29
2022-08-27T10:59:51.198Z,25.28
2022-08-27T11:00:51.289Z,25.29
2022-08-27T11:01:51.395Z,25.29
2022-08-27T11:02:51.476Z,25.29
2022-08-27T11:03:51.524Z,25.29
2022-08-27T11:04:51.599Z,25.29
2022-08-27T11:05:51.676Z,25.29
2022-08-27T11:06:51.730Z,25.29
2022-08-27T11:07:51.816Z,25.29
2022-08-27T11:08:51.898Z,25.29
2022-08-27T11:09:56.669Z,25.29
2022-08-27T11:10:52.028Z,25.29
2022-08-27T11:12:13.159Z,25.30
2022-08-27T11:12:52.202Z,25.30
2022-08-27T11:13:52.243Z,25.30
2022-08-27T11:14:52.352Z,25.30
2022-08-27T11:15:52.397Z,25.31
2022-08-27T11:16:52.589Z,25.31
2022-08-27T11:17:52.592Z,25.31
2022-08-27T11:18:52.638Z,25.31
2022-08-27T11:19:54.275Z,25.31
2022-08-27T11:20:52.816Z,25.31
2022-08-27T11:21:52.907Z,25.31
2022-08-27T11:22:53.034Z,25.31
2022-08-27T11:23:53.133Z,25.31
2022-08-27T11:24:53.109Z,25.31
2022-08-27T11:25:53.348Z,25.31
2022-08-27T11:26:53.284Z,25.31
2022-08-27T11:27:53.364Z,25.31
2022-08-27T11:28:53.426Z,25.31
2022-08-27T11:29:53.489Z,25.31
2022-08-27T11:30:53.567Z,25.31
2022-08-27T11:31:53.673Z,25.31
2022-08-27T11:32:53.740Z,25.31
2022-08-27T11:33:53.774Z,25.30
2022-08-27T11:34:53.855Z,25.30
2022-08-27T11:35:53.926Z,25.30
2022-08-27T11:36:54.627Z,25.30
2022-08-27T11:37:54.109Z,25.30
2022-08-27T11:38:54.159Z,25.30
2022-08-27T11:39:54.262Z,25.30
2022-08-27T11:40:54.310Z,25.30
2022-08-27T11:41:54.387Z,25.31
2022-08-27T11:42:54.477Z,25.31
2022-08-27T11:43:54.531Z,25.31
2022-08-27T11:44:54.612Z,25.31
2022-08-27T11:45:54.684Z,25.31
2022-08-27T11:46:54.838Z,25.31
2022-08-27T11:47:54.844Z,25.30
2022-08-27T11:48:54.908Z,25.30
2022-08-27T11:49:54.955Z,25.30
2022-08-27T11:50:55.034Z,25.30
2022-08-27T11:51:55.118Z,25.30
2022-08-27T11:52:55.196Z,25.30
2022-08-27T11:53:55.268Z,25.31
2022-08-27T11:54:55.353Z,25.31
2022-08-27T11:55:55.437Z,25.31
2022-08-27T11:56:55.513Z,25.31
2022-08-27T11:57:55.603Z,25.30
2022-08-27T11:58:55.669Z,25.30
2022-08-27T11:59:55.738Z,25.30
2022-08-27T12:00:55.799Z,25.30
2022-08-27T12:01:55.897Z,25.30
2022-08-27T12:02:55.975Z,25.30
2022-08-27T12:03:56.050Z,25.30
2022-08-27T12:04:56.061Z,25.30
2022-08-27T12:05:56.130Z,25.30
2022-08-27T12:06:56.205Z,25.30
2022-08-27T12:07:56.290Z,25.30
2022-08-27T12:08:56.359Z,25.29
2022-08-27T12:09:56.413Z,25.29
2022-08-27T12:10:56.498Z,25.29
2022-08-27T12:11:56.888Z,25.29
2022-08-27T12:12:56.651Z,25.28
2022-08-27T12:13:56.717Z,25.28
2022-08-27T12:14:56.747Z,25.27
2022-08-27T12:15:56.872Z,25.27
2022-08-27T12:16:56.906Z,25.27
2022-08-27T12:17:56.991Z,25.28
2022-08-27T12:18:57.107Z,25.28
2022-08-27T12:19:57.119Z,25.28
2022-08-27T12:20:57.186Z,25.28
2022-08-27T12:21:57.248Z,25.29
2022-08-27T12:22:57.343Z,25.29
2022-08-27T12:23:57.384Z,25.29
2022-08-27T12:24:57.448Z,25.29
2022-08-27T12:25:57.563Z,25.29
2022-08-27T12:26:57.586Z,25.29
2022-08-27T12:27:57.641Z,25.29
2022-08-27T12:28:57.694Z,25.29
2022-08-27T12:29:57.818Z,25.29
2022-08-27T12:30:57.850Z,25.29
2022-08-27T12:31:57.989Z,25.29
2022-08-27T12:32:57.987Z,25.29
2022-08-27T12:33:58.041Z,25.29
2022-08-27T12:34:59.708Z,25.29
2022-08-27T12:35:58.186Z,25.29
2022-08-27T12:36:58.272Z,25.29
2022-08-27T12:37:58.348Z,25.29
2022-08-27T12:38:58.475Z,25.29
2022-08-27T12:39:58.509Z,25.29
2022-08-27T12:40:58.565Z,25.29
2022-08-27T12:41:58.627Z,25.28
2022-08-27T12:42:58.684Z,25.28
2022-08-27T12:43:58.756Z,25.28
2022-08-27T12:44:58.822Z,25.28
2022-08-27T12:45:58.891Z,25.28
2022-08-27T12:46:59.059Z,25.28
2022-08-27T12:47:59.051Z,25.29
2022-08-27T12:48:59.135Z,25.29
2022-08-27T12:49:59.179Z,25.28
2022-08-27T12:50:59.259Z,25.27
2022-08-27T12:51:59.550Z,25.27
2022-08-27T12:52:59.410Z,25.27